createdAt,value
2022-11-29T00:01:06.535Z,25.40
2022-11-29T00:04:10.051Z,20.45
2022-11-29T00:07:12.615Z,21.67
2022-11-29T00:10:15.593Z,17.27
2022-11-29T00:13:18.075Z,23.38
2022-11-29T00:16:20.943Z,22.57
2022-11-29T00:19:23.892Z,17.75
2022-11-29T00:22:26.726Z,20.70
2022-11-29T00:25:29.193Z,19.08
2022-11-29T00:28:32.335Z,20.17
2022-11-29T00:31:34.838Z,25.90
2022-11-29T00:34:37.651Z,23.52
2022-11-29T00:37:40.192Z,25.15
2022-11-29T00:40:43.067Z,16.27
2022-11-29T00:43:45.715Z,15.55
2022-11-29T00:46:48.714Z,23.00
2022-11-29T00:49:51.272Z,23.92
2022-11-29T00:52:54.097Z,19.40
2022-11-29T00:55:56.798Z,18.55
2022-11-29T00:58:59.694Z,12.27
2022-11-29T01:02:02.219Z,22.80
2022-11-29T01:05:05.487Z,27.67
2022-11-29T01:08:07.981Z,21.58
2022-11-29T01:11:22.673Z,31.35
2022-11-29T01:14:25.158Z,25.00
2022-11-29T01:17:27.926Z,14.17
2022-11-29T01:20:30.424Z,23.67
2022-11-29T01:23:34.429Z,24.05
2022-11-29T01:26:36.954Z,23.85
2022-11-29T01:29:39.826Z,22.95
2022-11-29T01:32:42.287Z,29.50
2022-11-29T01:35:52.292Z,27.17
2022-11-29T01:38:55.216Z,26.45
2022-11-29T01:41:58.148Z,30.50
2022-11-29T01:45:26.774Z,23.90
2022-11-29T01:48:31.106Z,21.07
2022-11-29T01:51:34.977Z,24.70
2022-11-29T01:54:41.548Z,16.08
2022-11-29T01:57:44.416Z,27.23
2022-11-29T02:00:47.462Z,27.50
2022-11-29T02:03:50.178Z,23.50
2022-11-29T02:06:53.051Z,28.48
2022-11-29T02:09:55.594Z,27.65
2022-11-29T02:13:26.713Z,32.65
2022-11-29T02:16:36.201Z,33.67
2022-11-29T02:20:36.371Z,38.80
2022-11-29T02:23:47.570Z,29.37
2022-11-29T02:27:12.642Z,28.48
2022-11-29T02:30:33.742Z,24.05
2022-11-29T02:33:57.887Z,33.75
2022-11-29T02:37:16.991Z,27.87
2022-11-29T02:40:42.828Z,25.90
2022-11-29T02:44:07.159Z,26.45
2022-11-29T02:47:26.262Z,36.60
2022-11-29T02:50:39.104Z,31.10
2022-11-29T02:53:57.407Z,29.27
2022-11-29T02:57:02.855Z,26.70
2022-11-29T03:00:05.571Z,42.15
2022-11-29T03:03:36.934Z,23.33
2022-11-29T03:06:46.995Z,33.50
2022-11-29T03:09:58.878Z,22.67
2022-11-29T03:13:04.293Z,28.62
2022-11-29T03:16:14.413Z,21.75
2022-11-29T03:19:43.358Z,19.15
2022-11-29T03:23:10.073Z,36.15
2022-11-29T03:26:36.193Z,29.87
2022-11-29T03:29:38.800Z,24.15
2022-11-29T03:32:44.298Z,25.95
2022-11-29T03:36:07.643Z,28.75
2022-11-29T03:39:28.066Z,37.25
2022-11-29T03:42:34.790Z,28.27
2022-11-29T03:45:59.162Z,22.55
2022-11-29T03:49:13.883Z,28.55
2022-11-29T03:52:21.791Z,25.65
2022-11-29T03:55:27.488Z,26.33
2022-11-29T03:58:32.762Z,29.33
2022-11-29T04:01:47.474Z,25.88
2022-11-29T04:05:05.185Z,19.50
2022-11-29T04:08:10.664Z,23.27
2022-11-29T04:11:55.164Z,33.30
2022-11-29T04:15:15.762Z,39.03
2022-11-29T04:18:57.022Z,24.33
2022-11-29T04:22:51.136Z,21.00
2022-11-29T04:26:35.389Z,24.40
2022-11-29T04:29:50.170Z,26.85
2022-11-29T04:33:08.140Z,24.90
2022-11-29T04:36:44.948Z,24.15
2022-11-29T04:40:04.908Z,28.33
2022-11-29T04:43:37.718Z,31.45
2022-11-29T04:47:01.932Z,17.75
2022-11-29T04:50:23.331Z,20.07
2022-11-29T04:53:44.597Z,26.65
2022-11-29T04:56:50.358Z,23.83
2022-11-29T05:00:09.930Z,27.48
2022-11-29T05:03:24.667Z,18.27
2022-11-29T05:06:42.649Z,20.13
2022-11-29T05:10:26.776Z,21.60
2022-11-29T05:13:48.048Z,22.75
2022-11-29T05:17:09.556Z,25.58
2022-11-29T05:20:21.866Z,29.83
2022-11-29T05:23:34.079Z,43.10
2022-11-29T05:26:45.968Z,32.80
2022-11-29T05:30:02.237Z,28.38
2022-11-29T05:33:38.156Z,20.80
2022-11-29T05:36:49.103Z,34.40
2022-11-29T05:40:29.794Z,32.70
2022-11-29T05:44:09.213Z,23.33
2022-11-29T05:47:16.174Z,16.40
2022-11-29T05:50:47.628Z,15.55
2022-11-29T05:54:02.230Z,19.02
2022-11-29T05:57:43.798Z,21.73
2022-11-29T06:00:54.194Z,21.95
2022-11-29T06:03:59.961Z,19.20
2022-11-29T06:07:16.499Z,22.50
2022-11-29T06:10:21.345Z,17.33
2022-11-29T06:13:54.704Z,23.80
2022-11-29T06:17:26.011Z,22.40
2022-11-29T06:20:31.515Z,24.25
2022-11-29T06:24:05.897Z,24.70
2022-11-29T06:27:29.159Z,15.70
2022-11-29T06:31:10.623Z,23.63
2022-11-29T06:34:18.594Z,18.62
2022-11-29T06:37:28.573Z,25.90
2022-11-29T06:40:31.365Z,24.30
2022-11-29T06:43:34.437Z,22.30
2022-11-29T06:47:17.643Z,22.80
2022-11-29T06:50:26.651Z,19.48
2022-11-29T06:53:41.348Z,25.75
2022-11-29T06:56:47.008Z,35.70
2022-11-29T06:59:58.416Z,29.12
2022-11-29T07:03:25.041Z,10.90
2022-11-29T07:06:29.372Z,28.60
2022-11-29T07:09:34.694Z,20.35
2022-11-29T07:12:37.575Z,27.58
2022-11-29T07:16:04.713Z,18.37
2022-11-29T07:19:21.753Z,14.93
2022-11-29T07:22:30.540Z,23.60
2022-11-29T07:25:57.971Z,32.53
2022-11-29T07:29:16.387Z,14.65
2022-11-29T07:32:38.599Z,19.17
2022-11-29T07:35:55.473Z,18.07
2022-11-29T07:39:16.729Z,18.25
2022-11-29T07:42:37.786Z,23.80
2022-11-29T07:45:40.511Z,11.20
2022-11-29T07:48:43.920Z,14.57
2022-11-29T07:51:46.597Z,28.03
2022-11-29T07:54:49.677Z,19.48
2022-11-29T07:57:52.817Z,19.50
2022-11-29T08:00:55.996Z,19.67
2022-11-29T08:04:01.949Z,14.50
2022-11-29T08:07:04.583Z,21.83
2022-11-29T08:10:10.509Z,20.52
2022-11-29T08:13:13.662Z,24.17
2022-11-29T08:16:18.105Z,5.25
2022-11-29T08:19:20.784Z,28.27
2022-11-29T08:22:23.637Z,23.30
2022-11-29T08:25:27.373Z,15.40
2022-11-29T08:28:30.341Z,25.80
2022-11-29T08:31:32.955Z,27.67
2022-11-29T08:34:35.927Z,21.15
2022-11-29T08:37:38.470Z,22.80
2022-11-29T08:40:41.317Z,22.50
2022-11-29T08:43:44.419Z,18.98
2022-11-29T08:47:05.922Z,19.73
2022-11-29T08:50:14.389Z,25.80
2022-11-29T08:53:36.522Z,14.80
2022-11-29T09:00:02.299Z,16.73
2022-11-29T09:03:25.772Z,14.52
2022-11-29T09:06:36.264Z,19.50
2022-11-29T09:09:39.219Z,19.67
2022-11-29T09:12:44.307Z,25.83
2022-11-29T09:15:46.859Z,18.55
2022-11-29T09:18:51.855Z,20.27
2022-11-29T09:21:55.742Z,24.02
2022-11-29T09:24:59.447Z,18.97
2022-11-29T09:28:03.118Z,18.77
2022-11-29T09:31:07.531Z,20.30
2022-11-29T09:34:12.876Z,22.40
2022-11-29T09:37:16.545Z,22.42
2022-11-29T09:40:21.625Z,25.03
2022-11-29T09:44:13.294Z,26.85
2022-11-29T09:47:21.505Z,18.80
2022-11-29T09:50:34.250Z,19.37
2022-11-29T09:53:50.739Z,15.30
2022-11-29T09:56:55.571Z,22.80
2022-11-29T10:00:04.516Z,26.27
2022-11-29T10:03:25.544Z,22.02
2022-11-29T10:06:34.237Z,19.35
2022-11-29T10:09:53.885Z,20.75
2022-11-29T10:13:01.223Z,22.00
2022-11-29T10:16:14.075Z,24.45
2022-11-29T10:19:21.600Z,22.00
2022-11-29T10:22:55.535Z,21.40
2022-11-29T10:25:58.904Z,18.00
2022-11-29T10:29:01.852Z,20.43
2022-11-29T10:32:11.820Z,26.25
2022-11-29T10:35:16.673Z,19.75
2022-11-29T10:38:30.873Z,20.65
2022-11-29T10:41:35.819Z,15.55
2022-11-29T10:44:38.584Z,20.70
2022-11-29T10:47:41.114Z,18.80
2022-11-29T10:50:45.638Z,17.87
2022-11-29T10:53:48.728Z,15.20
2022-11-29T10:56:51.941Z,26.45
2022-11-29T11:00:04.574Z,17.13
2022-11-29T11:03:36.266Z,15.38
2022-11-29T11:06:52.369Z,19.33
2022-11-29T11:09:56.990Z,17.45
2022-11-29T11:13:24.671Z,21.35
2022-11-29T11:16:30.537Z,20.33
2022-11-29T11:19:35.361Z,16.58
2022-11-29T11:22:40.019Z,11.98
2022-11-29T11:25:42.739Z,13.13
2022-11-29T11:29:01.285Z,15.57
2022-11-29T11:32:05.199Z,13.27
2022-11-29T11:35:22.785Z,20.58
2022-11-29T11:38:25.367Z,13.25
2022-11-29T11:41:48.210Z,6.18
2022-11-29T11:44:52.691Z,15.52
2022-11-29T11:47:59.135Z,18.90
2022-11-29T11:51:02.012Z,21.92
2022-11-29T11:54:05.428Z,18.15
2022-11-29T11:57:17.582Z,19.98
2022-11-29T12:04:24.594Z,22.47
2022-11-29T12:08:07.317Z,21.98
2022-11-29T12:11:10.652Z,23.62
2022-11-29T12:14:44.989Z,16.50
2022-11-29T12:18:37.979Z,11.82
2022-11-29T12:21:44.307Z,22.73
2022-11-29T12:25:00.655Z,24.58
2022-11-29T12:28:03.896Z,23.02
2022-11-29T12:31:12.630Z,25.60
2022-11-29T12:34:33.270Z,23.40
2022-11-29T12:37:43.852Z,13.70
2022-11-29T12:41:23.975Z,19.35
2022-11-29T12:44:58.967Z,24.23
2022-11-29T12:48:10.335Z,25.65
2022-11-29T12:51:48.410Z,26.55
2022-11-29T12:55:20.902Z,29.20
2022-11-29T12:59:02.645Z,30.15
2022-11-29T13:02:20.230Z,26.48
2022-11-29T13:05:33.764Z,18.80
2022-11-29T13:09:15.575Z,14.13
2022-11-29T13:12:24.651Z,20.00
2022-11-29T13:15:53.145Z,21.23
2022-11-29T13:18:59.206Z,14.57
2022-11-29T13:22:11.195Z,26.12
2022-11-29T13:25:17.863Z,26.67
2022-11-29T13:28:28.137Z,28.73
2022-11-29T13:31:31.357Z,27.73
2022-11-29T13:34:43.036Z,21.87
2022-11-29T13:37:54.992Z,24.50
2022-11-29T13:41:02.764Z,21.25
2022-11-29T13:44:44.125Z,31.57
2022-11-29T13:47:50.654Z,28.17
2022-11-29T13:50:53.584Z,26.83
2022-11-29T13:53:57.763Z,18.23
2022-11-29T13:57:08.619Z,26.90
2022-11-29T14:00:33.787Z,28.00
2022-11-29T14:03:41.433Z,24.95
2022-11-29T14:06:46.903Z,22.83
2022-11-29T14:09:59.691Z,24.05
2022-11-29T14:13:02.198Z,27.90
2022-11-29T14:16:06.445Z,32.17
2022-11-29T14:19:08.845Z,23.17
2022-11-29T14:22:20.059Z,21.75
2022-11-29T14:28:57.127Z,27.42
2022-11-29T14:31:59.873Z,27.77
2022-11-29T14:35:11.954Z,27.85
2022-11-29T14:38:24.011Z,24.45
2022-11-29T14:41:51.706Z,26.87
2022-11-29T14:45:00.784Z,27.58
2022-11-29T14:48:04.121Z,28.97
2022-11-29T14:51:18.380Z,26.90
2022-11-29T14:54:21.396Z,37.63
2022-11-29T14:58:01.203Z,28.60
2022-11-29T15:01:10.314Z,30.62
2022-11-29T15:04:13.788Z,29.90
2022-11-29T15:07:25.427Z,25.58
2022-11-29T15:10:31.532Z,28.77
2022-11-29T15:13:36.477Z,30.35
2022-11-29T15:17:13.210Z,31.12
2022-11-29T15:20:38.397Z,34.73
2022-11-29T15:23:42.728Z,33.40
2022-11-29T15:40:36.484Z,32.97
2022-11-29T15:43:40.948Z,39.15
2022-11-29T15:46:43.417Z,37.33
2022-11-29T15:49:46.135Z,37.22
2022-11-29T15:52:48.680Z,39.50
2022-11-29T15:55:52.756Z,34.28
2022-11-29T15:58:59.883Z,34.00
2022-11-29T16:02:17.405Z,29.92
2022-11-29T16:05:27.364Z,34.95
2022-11-29T16:08:33.190Z,44.10
2022-11-29T16:11:37.050Z,41.90
2022-11-29T16:14:57.721Z,61.17
2022-11-29T16:18:22.246Z,60.15
2022-11-29T16:21:30.435Z,54.90
2022-11-29T16:24:34.513Z,59.43
2022-11-29T16:27:37.336Z,58.00
2022-11-29T16:30:42.217Z,43.83
2022-11-29T16:33:45.356Z,58.13
2022-11-29T16:37:07.696Z,69.90
2022-11-29T16:40:26.058Z,61.60
2022-11-29T16:43:44.311Z,95.60
2022-11-29T16:46:46.995Z,83.28
2022-11-29T16:50:17.140Z,75.60
2022-11-29T16:53:35.142Z,92.50
2022-11-29T16:56:39.083Z,59.47
2022-11-29T16:59:42.734Z,73.97
2022-11-29T17:02:45.817Z,65.82
2022-11-29T17:05:49.523Z,86.32
2022-11-29T17:08:54.330Z,80.20
2022-11-29T17:11:59.997Z,77.60
2022-11-29T17:15:02.950Z,79.95
2022-11-29T17:18:05.581Z,79.72
2022-11-29T17:21:17.650Z,83.82
2022-11-29T17:24:22.063Z,56.17
2022-11-29T17:27:24.885Z,43.50
2022-11-29T17:30:30.071Z,67.95
2022-11-29T17:33:32.945Z,44.78
2022-11-29T17:36:35.714Z,44.63
2022-11-29T17:39:38.777Z,48.78
2022-11-29T17:42:41.511Z,38.97
2022-11-29T17:45:44.736Z,103.80
2022-11-29T17:48:47.963Z,86.07
2022-11-29T17:51:52.588Z,97.70
2022-11-29T17:54:55.671Z,156.15
2022-11-29T17:57:58.457Z,74.27
2022-11-29T18:01:28.561Z,71.97
2022-11-29T18:04:31.460Z,80.75
2022-11-29T18:07:34.118Z,53.70
2022-11-29T18:10:37.388Z,37.58
2022-11-29T18:13:40.369Z,37.70
2022-11-29T18:16:45.245Z,41.42
2022-11-29T18:19:48.796Z,43.92
2022-11-29T18:22:53.436Z,39.03
2022-11-29T18:26:03.788Z,39.25
2022-11-29T18:29:07.496Z,39.97
2022-11-29T18:32:10.339Z,39.33
2022-11-29T18:35:13.296Z,35.03
2022-11-29T18:38:16.638Z,35.72
2022-11-29T18:41:21.607Z,32.80
2022-11-29T18:44:29.303Z,42.60
2022-11-29T18:47:33.140Z,35.58
2022-11-29T18:50:36.268Z,35.33
2022-11-29T18:53:39.788Z,38.05
2022-11-29T18:56:43.004Z,43.20
2022-11-29T18:59:45.813Z,40.57
2022-11-29T19:02:48.985Z,41.65
2022-11-29T19:05:52.748Z,40.90
2022-11-29T19:08:57.079Z,81.00
2022-11-29T19:12:01.212Z,148.02
2022-11-29T19:15:04.241Z,123.67
2022-11-29T19:18:07.014Z,88.30
2022-11-29T19:21:12.425Z,47.42
2022-11-29T19:24:17.843Z,98.82
2022-11-29T19:27:22.421Z,107.80
2022-11-29T19:30:25.462Z,94.00
2022-11-29T19:33:28.324Z,82.93
2022-11-29T19:36:32.137Z,65.05
2022-11-29T19:39:35.048Z,58.95
2022-11-29T19:42:37.815Z,61.08
2022-11-29T19:45:40.734Z,54.73
2022-11-29T19:48:44.307Z,61.20
2022-11-29T19:51:47.151Z,50.35
2022-11-29T19:54:50.146Z,48.03
2022-11-29T19:57:53.422Z,48.38
2022-11-29T20:00:56.494Z,48.33
2022-11-29T20:03:59.544Z,46.60
2022-11-29T20:07:03.504Z,52.78
2022-11-29T20:10:08.188Z,50.97
2022-11-29T20:13:10.996Z,51.85
2022-11-29T20:16:17.155Z,48.63
2022-11-29T20:19:20.103Z,47.55
2022-11-29T20:22:23.152Z,66.32
2022-11-29T20:25:26.226Z,62.33
2022-11-29T20:28:29.240Z,61.88
2022-11-29T20:31:33.900Z,64.87
2022-11-29T20:34:38.522Z,61.75
2022-11-29T20:38:03.709Z,52.78
2022-11-29T20:41:14.197Z,54.10
2022-11-29T20:44:20.609Z,51.80
2022-11-29T20:47:25.848Z,53.93
2022-11-29T20:50:32.184Z,52.78
2022-11-29T20:53:41.005Z,60.78
2022-11-29T20:56:43.497Z,47.53
2022-11-29T20:59:46.996Z,50.97
2022-11-29T21:02:49.801Z,45.77
2022-11-29T21:05:53.343Z,48.22
2022-11-29T21:08:56.003Z,47.42
2022-11-29T21:11:58.881Z,50.95
2022-11-29T21:15:02.189Z,55.80
2022-11-29T21:18:05.327Z,55.10
2022-11-29T21:21:13.781Z,49.75
2022-11-29T21:24:46.986Z,54.95
2022-11-29T21:27:50.501Z,51.78
2022-11-29T21:30:53.775Z,48.63
2022-11-29T21:33:56.554Z,71.63
2022-11-29T21:36:59.966Z,66.55
2022-11-29T21:40:02.456Z,57.40
2022-11-29T21:43:05.264Z,53.80
2022-11-29T21:46:07.923Z,57.10
2022-11-29T21:49:11.129Z,46.87
2022-11-29T21:52:19.092Z,60.72
2022-11-29T21:55:31.522Z,48.25
2022-11-29T21:58:36.095Z,47.53
2022-11-29T22:01:39.820Z,46.45
2022-11-29T22:04:42.706Z,48.40
2022-11-29T22:07:45.268Z,44.13
2022-11-29T22:10:48.117Z,47.05
2022-11-29T22:14:11.896Z,43.35
2022-11-29T22:17:14.664Z,43.25
2022-11-29T22:20:17.372Z,40.63
2022-11-29T22:23:20.136Z,44.45
2022-11-29T22:26:22.555Z,42.55
2022-11-29T22:29:25.533Z,47.20
2022-11-29T22:32:28.007Z,48.22
2022-11-29T22:35:30.998Z,45.20
2022-11-29T22:38:34.928Z,51.97
2022-11-29T22:41:39.090Z,56.88
2022-11-29T22:44:41.520Z,49.35
2022-11-29T22:47:44.295Z,47.80
2022-11-29T22:50:46.909Z,51.10
2022-11-29T22:53:51.687Z,60.83
2022-11-29T22:56:55.039Z,54.85
2022-11-29T22:59:57.832Z,57.00
2022-11-29T23:03:00.278Z,50.25
2022-11-29T23:06:17.675Z,53.50
2022-11-29T23:09:22.282Z,53.58
2022-11-29T23:12:26.527Z,50.40
2022-11-29T23:15:29.141Z,57.08
2022-11-29T23:18:32.338Z,59.83
2022-11-29T23:21:37.330Z,50.47
2022-11-29T23:24:42.401Z,46.53
2022-11-29T23:27:44.813Z,48.13
2022-11-29T23:30:47.568Z,53.40
2022-11-29T23:33:50.413Z,42.95
2022-11-29T23:36:53.523Z,51.43
2022-11-29T23:39:56.051Z,48.95
2022-11-29T23:42:58.873Z,45.15
2022-11-29T23:46:16.212Z,43.03
2022-11-29T23:49:19.062Z,46.55
2022-11-29T23:52:21.729Z,49.90
2022-11-29T23:55:24.996Z,45.75
2022-11-29T23:58:28.397Z,26.73
